Aviation Digital Data Service (ADDS)

Output produced by TAFs form (1051 UTC 16 July 2018)
found at http://www.aviationweather.gov/adds/tafs/
 
METAR text: UUEE 161030Z 04006G11MPS 360V080 CAVOK 27/18 Q1009 R06C/CLRD62 R06R/CLRD62 NOSIG
Conditions at: UUEE (MOSCOW/SHEREMET', RU) observed 1030 UTC 16 July 2018
Temperature: 27.0°C (81°F)
Dewpoint: 18.0°C (64°F) [RH = 58%]
Pressure (altimeter): 29.79 inches Hg (1009.0 mb)
Winds: from the NE (40 degrees) at 14 MPH (12 knots; 6.2 m/s)
gusting to 24 MPH (21 knots; 10.9 m/s)
Visibility: 6 or more miles (10+ km)
Ceiling: ceiling and visibility are OK
Clouds: unknown
Weather: no significant weather observed at this time

Forecast for: UUEE (MOSCOW/SHEREMET', RU)
Text: TAF UUEE 160800Z 1609/1709 05006MPS 9999 BKN025 TX29/1613Z TN20/1702Z
Forecast period: 0900 UTC 16 July 2018 to 0900 UTC 17 July 2018
Forecast type: FROM: standard forecast or significant change
Winds: from the NE (50 degrees) at 14 MPH (12 knots; 6.2 m/s)
Visibility: 6 or more miles (10+ km)
Ceiling: 2500 feet AGL
Clouds: broken clouds at 2500 feet AGL
Weather: no significant weather forecast for this period